sensor_id;sensor_type;location;lat;lon;timestamp;P1;durP1;ratioP1;P2;durP2;ratioP2
7110;SDS011;3597;42.650;23.386;2022-07-06T00:01:19;9.33;;;9.13;;
7110;SDS011;3597;42.650;23.386;2022-07-06T00:03:45;9.83;;;9.57;;
7110;SDS011;3597;42.650;23.386;2022-07-06T00:06:10;10.60;;;10.30;;
7110;SDS011;3597;42.650;23.386;2022-07-06T00:08:36;9.67;;;9.43;;
7110;SDS011;3597;42.650;23.386;2022-07-06T00:11:01;10.33;;;10.03;;
7110;SDS011;3597;42.650;23.386;2022-07-06T00:13:27;11.17;;;10.87;;
7110;SDS011;3597;42.650;23.386;2022-07-06T00:15:53;11.97;;;11.57;;
7110;SDS011;3597;42.650;23.386;2022-07-06T00:18:18;13.13;;;12.63;;
7110;SDS011;3597;42.650;23.386;2022-07-06T00:20:44;14.37;;;13.87;;
7110;SDS011;3597;42.650;23.386;2022-07-06T00:23:09;13.83;;;13.33;;
7110;SDS011;3597;42.650;23.386;2022-07-06T00:25:35;13.23;;;12.80;;
7110;SDS011;3597;42.650;23.386;2022-07-06T00:28:00;11.73;;;11.33;;
7110;SDS011;3597;42.650;23.386;2022-07-06T00:30:26;10.57;;;10.27;;
7110;SDS011;3597;42.650;23.386;2022-07-06T00:32:51;8.43;;;8.13;;
7110;SDS011;3597;42.650;23.386;2022-07-06T00:35:16;8.67;;;8.37;;
7110;SDS011;3597;42.650;23.386;2022-07-06T00:37:42;8.20;;;7.93;;
7110;SDS011;3597;42.650;23.386;2022-07-06T00:40:07;7.70;;;7.43;;
7110;SDS011;3597;42.650;23.386;2022-07-06T00:42:43;8.13;;;7.73;;
7110;SDS011;3597;42.650;23.386;2022-07-06T00:45:10;7.50;;;7.30;;
7110;SDS011;3597;42.650;23.386;2022-07-06T00:47:36;7.13;;;6.93;;
7110;SDS011;3597;42.650;23.386;2022-07-06T00:50:03;7.80;;;7.60;;
7110;SDS011;3597;42.650;23.386;2022-07-06T00:55:14;6.23;;;6.13;;
7110;SDS011;3597;42.650;23.386;2022-07-06T00:57:41;7.37;;;6.93;;
7110;SDS011;3597;42.650;23.386;2022-07-06T01:00:07;6.10;;;6.00;;
7110;SDS011;3597;42.650;23.386;2022-07-06T01:02:35;6.77;;;6.40;;
7110;SDS011;3597;42.650;23.386;2022-07-06T01:05:01;6.13;;;6.03;;
7110;SDS011;3597;42.650;23.386;2022-07-06T01:07:26;6.33;;;6.13;;
7110;SDS011;3597;42.650;23.386;2022-07-06T01:09:52;6.23;;;6.13;;
7110;SDS011;3597;42.650;23.386;2022-07-06T01:12:18;6.00;;;5.87;;
7110;SDS011;3597;42.650;23.386;2022-07-06T01:14:44;6.77;;;6.67;;
7110;SDS011;3597;42.650;23.386;2022-07-06T01:17:10;6.33;;;6.13;;
7110;SDS011;3597;42.650;23.386;2022-07-06T01:19:35;6.17;;;6.07;;
7110;SDS011;3597;42.650;23.386;2022-07-06T01:22:01;5.87;;;5.77;;
7110;SDS011;3597;42.650;23.386;2022-07-06T01:24:26;6.43;;;6.23;;
7110;SDS011;3597;42.650;23.386;2022-07-06T01:26:52;6.50;;;6.20;;
7110;SDS011;3597;42.650;23.386;2022-07-06T01:29:17;6.10;;;5.93;;
7110;SDS011;3597;42.650;23.386;2022-07-06T01:31:46;5.97;;;5.77;;
7110;SDS011;3597;42.650;23.386;2022-07-06T01:34:13;5.77;;;5.67;;
7110;SDS011;3597;42.650;23.386;2022-07-06T01:36:40;6.80;;;6.60;;
7110;SDS011;3597;42.650;23.386;2022-07-06T01:39:05;7.33;;;6.97;;
7110;SDS011;3597;42.650;23.386;2022-07-06T01:41:33;7.27;;;6.77;;
7110;SDS011;3597;42.650;23.386;2022-07-06T01:43:58;7.57;;;7.27;;
7110;SDS011;3597;42.650;23.386;2022-07-06T01:46:23;7.03;;;6.83;;
7110;SDS011;3597;42.650;23.386;2022-07-06T01:48:49;7.03;;;6.73;;
7110;SDS011;3597;42.650;23.386;2022-07-06T01:51:14;6.83;;;6.63;;
7110;SDS011;3597;42.650;23.386;2022-07-06T01:53:39;8.47;;;8.07;;
7110;SDS011;3597;42.650;23.386;2022-07-06T01:56:05;7.97;;;7.67;;
7110;SDS011;3597;42.650;23.386;2022-07-06T01:58:31;9.60;;;9.00;;
7110;SDS011;3597;42.650;23.386;2022-07-06T02:00:56;8.37;;;7.97;;
7110;SDS011;3597;42.650;23.386;2022-07-06T02:03:22;8.43;;;8.00;;
7110;SDS011;3597;42.650;23.386;2022-07-06T02:05:47;8.87;;;8.37;;
7110;SDS011;3597;42.650;23.386;2022-07-06T02:08:12;8.43;;;8.00;;
7110;SDS011;3597;42.650;23.386;2022-07-06T02:10:38;8.03;;;7.73;;
7110;SDS011;3597;42.650;23.386;2022-07-06T02:13:03;7.60;;;7.30;;
7110;SDS011;3597;42.650;23.386;2022-07-06T02:15:28;8.83;;;8.53;;
7110;SDS011;3597;42.650;23.386;2022-07-06T02:17:54;8.17;;;7.87;;
7110;SDS011;3597;42.650;23.386;2022-07-06T02:20:19;9.40;;;9.10;;
7110;SDS011;3597;42.650;23.386;2022-07-06T02:22:44;8.60;;;8.30;;
7110;SDS011;3597;42.650;23.386;2022-07-06T02:25:10;8.97;;;8.67;;
7110;SDS011;3597;42.650;23.386;2022-07-06T02:27:35;9.00;;;8.73;;
7110;SDS011;3597;42.650;23.386;2022-07-06T02:30:01;8.97;;;8.67;;
7110;SDS011;3597;42.650;23.386;2022-07-06T02:32:26;8.67;;;8.47;;
7110;SDS011;3597;42.650;23.386;2022-07-06T02:34:51;7.83;;;7.63;;
7110;SDS011;3597;42.650;23.386;2022-07-06T02:37:17;7.67;;;7.47;;
7110;SDS011;3597;42.650;23.386;2022-07-06T02:39:43;8.20;;;7.90;;
7110;SDS011;3597;42.650;23.386;2022-07-06T02:42:08;8.30;;;8.10;;
7110;SDS011;3597;42.650;23.386;2022-07-06T02:44:34;7.20;;;7.00;;
7110;SDS011;3597;42.650;23.386;2022-07-06T02:46:59;8.07;;;7.77;;
7110;SDS011;3597;42.650;23.386;2022-07-06T02:49:24;6.97;;;6.80;;
7110;SDS011;3597;42.650;23.386;2022-07-06T02:51:50;7.03;;;6.83;;
7110;SDS011;3597;42.650;23.386;2022-07-06T02:54:15;6.87;;;6.67;;
7110;SDS011;3597;42.650;23.386;2022-07-06T02:56:40;6.17;;;5.97;;
7110;SDS011;3597;42.650;23.386;2022-07-06T02:59:06;6.23;;;6.03;;
7110;SDS011;3597;42.650;23.386;2022-07-06T03:01:31;6.37;;;6.17;;
7110;SDS011;3597;42.650;23.386;2022-07-06T03:03:56;5.57;;;5.43;;
7110;SDS011;3597;42.650;23.386;2022-07-06T03:06:22;5.97;;;5.77;;
7110;SDS011;3597;42.650;23.386;2022-07-06T03:08:47;5.83;;;5.73;;
7110;SDS011;3597;42.650;23.386;2022-07-06T03:11:13;5.73;;;5.63;;
7110;SDS011;3597;42.650;23.386;2022-07-06T03:13:38;5.50;;;5.40;;
7110;SDS011;3597;42.650;23.386;2022-07-06T03:16:04;5.40;;;5.30;;
7110;SDS011;3597;42.650;23.386;2022-07-06T03:18:29;6.03;;;5.83;;
7110;SDS011;3597;42.650;23.386;2022-07-06T03:20:54;6.00;;;5.80;;
7110;SDS011;3597;42.650;23.386;2022-07-06T03:23:20;5.47;;;5.37;;
7110;SDS011;3597;42.650;23.386;2022-07-06T03:25:45;5.17;;;4.97;;
7110;SDS011;3597;42.650;23.386;2022-07-06T03:28:11;5.60;;;5.50;;
7110;SDS011;3597;42.650;23.386;2022-07-06T03:30:36;5.60;;;5.43;;
7110;SDS011;3597;42.650;23.386;2022-07-06T03:33:02;5.27;;;5.17;;
7110;SDS011;3597;42.650;23.386;2022-07-06T03:35:27;5.63;;;5.53;;
7110;SDS011;3597;42.650;23.386;2022-07-06T03:37:53;5.83;;;5.73;;
7110;SDS011;3597;42.650;23.386;2022-07-06T03:40:19;5.60;;;5.50;;
7110;SDS011;3597;42.650;23.386;2022-07-06T03:42:44;6.40;;;6.20;;
7110;SDS011;3597;42.650;23.386;2022-07-06T03:45:10;6.33;;;6.13;;
7110;SDS011;3597;42.650;23.386;2022-07-06T03:47:35;5.83;;;5.73;;
7110;SDS011;3597;42.650;23.386;2022-07-06T03:50:01;5.83;;;5.73;;
7110;SDS011;3597;42.650;23.386;2022-07-06T03:52:26;6.70;;;6.50;;
7110;SDS011;3597;42.650;23.386;2022-07-06T03:54:52;6.33;;;6.13;;
7110;SDS011;3597;42.650;23.386;2022-07-06T03:57:17;7.10;;;6.90;;
7110;SDS011;3597;42.650;23.386;2022-07-06T03:59:42;6.63;;;6.43;;
7110;SDS011;3597;42.650;23.386;2022-07-06T04:02:08;7.20;;;7.00;;
7110;SDS011;3597;42.650;23.386;2022-07-06T04:04:33;34.83;;;33.13;;
7110;SDS011;3597;42.650;23.386;2022-07-06T04:06:59;8.70;;;8.47;;
7110;SDS011;3597;42.650;23.386;2022-07-06T04:09:24;8.37;;;8.07;;
7110;SDS011;3597;42.650;23.386;2022-07-06T04:11:49;5.20;;;5.10;;
7110;SDS011;3597;42.650;23.386;2022-07-06T04:14:15;5.67;;;5.50;;
7110;SDS011;3597;42.650;23.386;2022-07-06T04:16:40;6.33;;;6.13;;
7110;SDS011;3597;42.650;23.386;2022-07-06T04:19:06;7.73;;;7.43;;
7110;SDS011;3597;42.650;23.386;2022-07-06T04:21:31;7.73;;;7.43;;
7110;SDS011;3597;42.650;23.386;2022-07-06T04:23:56;7.03;;;6.73;;
7110;SDS011;3597;42.650;23.386;2022-07-06T04:26:22;9.07;;;8.73;;
7110;SDS011;3597;42.650;23.386;2022-07-06T04:28:47;10.27;;;9.67;;
7110;SDS011;3597;42.650;23.386;2022-07-06T04:31:13;11.03;;;10.70;;
7110;SDS011;3597;42.650;23.386;2022-07-06T04:33:40;18.23;;;17.63;;
7110;SDS011;3597;42.650;23.386;2022-07-06T04:36:07;12.17;;;11.87;;
7110;SDS011;3597;42.650;23.386;2022-07-06T04:38:32;6.67;;;6.27;;
7110;SDS011;3597;42.650;23.386;2022-07-06T04:40:58;5.23;;;5.13;;
7110;SDS011;3597;42.650;23.386;2022-07-06T04:43:23;18.33;;;17.73;;
7110;SDS011;3597;42.650;23.386;2022-07-06T04:45:48;14.33;;;13.83;;
7110;SDS011;3597;42.650;23.386;2022-07-06T04:48:14;7.37;;;7.17;;
7110;SDS011;3597;42.650;23.386;2022-07-06T04:50:39;4.90;;;4.80;;
7110;SDS011;3597;42.650;23.386;2022-07-06T04:53:04;5.37;;;5.27;;
7110;SDS011;3597;42.650;23.386;2022-07-06T04:55:30;4.50;;;4.30;;
7110;SDS011;3597;42.650;23.386;2022-07-06T04:57:56;4.93;;;4.83;;
7110;SDS011;3597;42.650;23.386;2022-07-06T05:00:22;6.20;;;6.00;;
7110;SDS011;3597;42.650;23.386;2022-07-06T05:02:47;5.97;;;5.87;;
7110;SDS011;3597;42.650;23.386;2022-07-06T05:05:13;7.87;;;7.77;;
7110;SDS011;3597;42.650;23.386;2022-07-06T05:07:38;4.90;;;4.80;;
7110;SDS011;3597;42.650;23.386;2022-07-06T05:10:13;5.00;;;4.90;;
7110;SDS011;3597;42.650;23.386;2022-07-06T05:12:39;5.07;;;4.97;;
7110;SDS011;3597;42.650;23.386;2022-07-06T05:15:04;6.23;;;6.13;;
7110;SDS011;3597;42.650;23.386;2022-07-06T05:17:30;5.67;;;5.57;;
7110;SDS011;3597;42.650;23.386;2022-07-06T05:19:56;5.87;;;5.77;;
7110;SDS011;3597;42.650;23.386;2022-07-06T05:22:21;5.27;;;5.17;;
7110;SDS011;3597;42.650;23.386;2022-07-06T05:24:46;5.00;;;4.80;;
7110;SDS011;3597;42.650;23.386;2022-07-06T05:27:12;5.73;;;5.63;;
7110;SDS011;3597;42.650;23.386;2022-07-06T05:29:37;4.07;;;3.97;;
7110;SDS011;3597;42.650;23.386;2022-07-06T05:32:03;4.10;;;4.00;;
7110;SDS011;3597;42.650;23.386;2022-07-06T05:34:28;6.80;;;6.63;;
7110;SDS011;3597;42.650;23.386;2022-07-06T05:36:54;4.70;;;4.50;;
7110;SDS011;3597;42.650;23.386;2022-07-06T05:39:19;4.77;;;4.67;;
7110;SDS011;3597;42.650;23.386;2022-07-06T05:41:47;8.00;;;7.70;;
7110;SDS011;3597;42.650;23.386;2022-07-06T05:44:13;3.47;;;3.47;;
7110;SDS011;3597;42.650;23.386;2022-07-06T05:46:38;4.23;;;4.13;;
7110;SDS011;3597;42.650;23.386;2022-07-06T05:49:04;3.57;;;3.57;;
7110;SDS011;3597;42.650;23.386;2022-07-06T05:51:48;4.13;;;4.00;;
7110;SDS011;3597;42.650;23.386;2022-07-06T05:54:14;7.23;;;7.03;;
7110;SDS011;3597;42.650;23.386;2022-07-06T05:56:40;8.00;;;7.73;;
7110;SDS011;3597;42.650;23.386;2022-07-06T05:59:05;3.37;;;3.27;;
7110;SDS011;3597;42.650;23.386;2022-07-06T06:01:31;3.53;;;3.43;;
7110;SDS011;3597;42.650;23.386;2022-07-06T06:03:56;3.63;;;3.63;;
7110;SDS011;3597;42.650;23.386;2022-07-06T06:06:21;4.43;;;4.33;;
7110;SDS011;3597;42.650;23.386;2022-07-06T06:08:47;4.63;;;4.53;;
7110;SDS011;3597;42.650;23.386;2022-07-06T06:11:12;3.93;;;3.83;;
7110;SDS011;3597;42.650;23.386;2022-07-06T06:13:37;4.23;;;4.13;;
7110;SDS011;3597;42.650;23.386;2022-07-06T06:16:03;3.70;;;3.60;;
7110;SDS011;3597;42.650;23.386;2022-07-06T06:18:29;4.23;;;4.13;;
7110;SDS011;3597;42.650;23.386;2022-07-06T06:20:54;4.10;;;4.00;;
7110;SDS011;3597;42.650;23.386;2022-07-06T06:23:19;4.20;;;4.10;;
7110;SDS011;3597;42.650;23.386;2022-07-06T06:25:45;4.43;;;4.33;;
7110;SDS011;3597;42.650;23.386;2022-07-06T06:28:10;4.93;;;4.83;;
7110;SDS011;3597;42.650;23.386;2022-07-06T06:30:36;4.00;;;3.90;;
7110;SDS011;3597;42.650;23.386;2022-07-06T06:35:42;4.20;;;3.87;;
7110;SDS011;3597;42.650;23.386;2022-07-06T06:38:08;4.53;;;4.43;;
7110;SDS011;3597;42.650;23.386;2022-07-06T06:40:34;3.80;;;3.70;;
7110;SDS011;3597;42.650;23.386;2022-07-06T06:42:59;4.20;;;4.10;;
7110;SDS011;3597;42.650;23.386;2022-07-06T06:45:25;4.67;;;4.57;;
7110;SDS011;3597;42.650;23.386;2022-07-06T06:47:50;4.40;;;4.30;;
7110;SDS011;3597;42.650;23.386;2022-07-06T06:50:15;4.27;;;4.17;;
7110;SDS011;3597;42.650;23.386;2022-07-06T06:52:41;4.13;;;3.83;;
7110;SDS011;3597;42.650;23.386;2022-07-06T06:55:06;4.10;;;4.00;;
7110;SDS011;3597;42.650;23.386;2022-07-06T06:57:32;3.90;;;3.80;;
7110;SDS011;3597;42.650;23.386;2022-07-06T06:59:58;4.20;;;4.10;;
7110;SDS011;3597;42.650;23.386;2022-07-06T07:02:23;4.40;;;4.30;;
7110;SDS011;3597;42.650;23.386;2022-07-06T07:04:48;4.53;;;4.43;;
7110;SDS011;3597;42.650;23.386;2022-07-06T07:07:14;6.83;;;6.73;;
7110;SDS011;3597;42.650;23.386;2022-07-06T07:09:39;5.50;;;5.40;;
7110;SDS011;3597;42.650;23.386;2022-07-06T07:12:05;4.43;;;4.33;;
7110;SDS011;3597;42.650;23.386;2022-07-06T07:14:31;3.97;;;3.87;;
7110;SDS011;3597;42.650;23.386;2022-07-06T07:16:56;5.50;;;5.40;;
7110;SDS011;3597;42.650;23.386;2022-07-06T07:19:21;4.77;;;4.67;;
7110;SDS011;3597;42.650;23.386;2022-07-06T07:21:47;4.60;;;4.50;;
7110;SDS011;3597;42.650;23.386;2022-07-06T07:24:12;4.07;;;3.97;;
7110;SDS011;3597;42.650;23.386;2022-07-06T07:26:37;3.87;;;3.77;;
7110;SDS011;3597;42.650;23.386;2022-07-06T07:29:03;4.20;;;4.10;;
7110;SDS011;3597;42.650;23.386;2022-07-06T07:31:28;4.37;;;4.27;;
7110;SDS011;3597;42.650;23.386;2022-07-06T07:33:54;4.20;;;4.10;;
7110;SDS011;3597;42.650;23.386;2022-07-06T07:36:22;4.47;;;4.20;;
7110;SDS011;3597;42.650;23.386;2022-07-06T07:38:48;4.27;;;4.10;;
7110;SDS011;3597;42.650;23.386;2022-07-06T07:41:14;4.43;;;4.23;;
7110;SDS011;3597;42.650;23.386;2022-07-06T07:43:39;4.83;;;4.73;;
7110;SDS011;3597;42.650;23.386;2022-07-06T07:46:04;3.50;;;3.50;;
7110;SDS011;3597;42.650;23.386;2022-07-06T07:48:30;4.27;;;4.13;;
7110;SDS011;3597;42.650;23.386;2022-07-06T07:50:55;3.93;;;3.83;;
7110;SDS011;3597;42.650;23.386;2022-07-06T07:53:20;4.00;;;3.90;;
7110;SDS011;3597;42.650;23.386;2022-07-06T07:55:46;4.40;;;4.30;;
7110;SDS011;3597;42.650;23.386;2022-07-06T07:58:11;5.03;;;4.93;;
7110;SDS011;3597;42.650;23.386;2022-07-06T08:00:36;3.83;;;3.73;;
7110;SDS011;3597;42.650;23.386;2022-07-06T08:03:02;4.27;;;4.17;;
7110;SDS011;3597;42.650;23.386;2022-07-06T08:05:27;4.27;;;4.17;;
7110;SDS011;3597;42.650;23.386;2022-07-06T08:07:53;4.40;;;4.30;;
7110;SDS011;3597;42.650;23.386;2022-07-06T08:10:19;4.33;;;4.23;;
7110;SDS011;3597;42.650;23.386;2022-07-06T08:12:44;4.70;;;4.60;;
7110;SDS011;3597;42.650;23.386;2022-07-06T08:15:09;5.20;;;5.10;;
7110;SDS011;3597;42.650;23.386;2022-07-06T08:17:35;4.30;;;4.20;;
7110;SDS011;3597;42.650;23.386;2022-07-06T08:20:00;4.30;;;4.20;;
7110;SDS011;3597;42.650;23.386;2022-07-06T08:22:26;2.83;;;2.80;;
7110;SDS011;3597;42.650;23.386;2022-07-06T08:24:52;2.80;;;2.80;;
7110;SDS011;3597;42.650;23.386;2022-07-06T08:27:17;3.53;;;3.43;;
7110;SDS011;3597;42.650;23.386;2022-07-06T08:29:43;3.57;;;3.57;;
7110;SDS011;3597;42.650;23.386;2022-07-06T08:32:08;3.63;;;3.53;;
7110;SDS011;3597;42.650;23.386;2022-07-06T08:34:33;3.93;;;3.83;;
7110;SDS011;3597;42.650;23.386;2022-07-06T08:36:59;3.17;;;3.17;;
7110;SDS011;3597;42.650;23.386;2022-07-06T08:39:24;3.50;;;3.40;;
7110;SDS011;3597;42.650;23.386;2022-07-06T08:41:49;3.53;;;3.43;;
7110;SDS011;3597;42.650;23.386;2022-07-06T08:44:16;4.10;;;4.00;;
7110;SDS011;3597;42.650;23.386;2022-07-06T08:46:42;4.50;;;4.40;;
7110;SDS011;3597;42.650;23.386;2022-07-06T08:49:08;4.88;;;4.78;;
7110;SDS011;3597;42.650;23.386;2022-07-06T08:51:37;4.70;;;4.60;;
7110;SDS011;3597;42.650;23.386;2022-07-06T08:54:03;4.30;;;4.20;;
7110;SDS011;3597;42.650;23.386;2022-07-06T08:56:29;4.20;;;4.10;;
7110;SDS011;3597;42.650;23.386;2022-07-06T08:58:54;4.43;;;4.33;;
7110;SDS011;3597;42.650;23.386;2022-07-06T09:01:20;4.03;;;3.93;;
7110;SDS011;3597;42.650;23.386;2022-07-06T09:03:46;4.20;;;4.10;;
7110;SDS011;3597;42.650;23.386;2022-07-06T09:06:14;4.10;;;4.00;;
7110;SDS011;3597;42.650;23.386;2022-07-06T09:08:41;4.37;;;4.30;;
7110;SDS011;3597;42.650;23.386;2022-07-06T09:11:08;4.47;;;4.37;;
7110;SDS011;3597;42.650;23.386;2022-07-06T09:13:33;4.20;;;4.07;;
7110;SDS011;3597;42.650;23.386;2022-07-06T09:16:08;4.47;;;4.37;;
7110;SDS011;3597;42.650;23.386;2022-07-06T09:18:38;3.83;;;3.73;;
7110;SDS011;3597;42.650;23.386;2022-07-06T09:21:04;4.33;;;4.23;;
7110;SDS011;3597;42.650;23.386;2022-07-06T09:23:30;4.30;;;4.20;;
7110;SDS011;3597;42.650;23.386;2022-07-06T09:25:55;4.18;;;4.07;;
7110;SDS011;3597;42.650;23.386;2022-07-06T09:28:21;4.40;;;4.30;;
7110;SDS011;3597;42.650;23.386;2022-07-06T09:30:46;4.33;;;4.23;;
7110;SDS011;3597;42.650;23.386;2022-07-06T09:33:12;4.37;;;4.27;;
7110;SDS011;3597;42.650;23.386;2022-07-06T09:35:42;5.10;;;4.93;;
7110;SDS011;3597;42.650;23.386;2022-07-06T09:38:11;4.53;;;4.43;;
7110;SDS011;3597;42.650;23.386;2022-07-06T09:40:38;4.23;;;4.13;;
7110;SDS011;3597;42.650;23.386;2022-07-06T09:45:45;4.40;;;4.30;;
7110;SDS011;3597;42.650;23.386;2022-07-06T09:48:15;4.30;;;4.20;;
7110;SDS011;3597;42.650;23.386;2022-07-06T09:50:47;4.43;;;4.33;;
7110;SDS011;3597;42.650;23.386;2022-07-06T09:53:18;4.00;;;3.90;;
7110;SDS011;3597;42.650;23.386;2022-07-06T09:55:45;4.27;;;4.17;;
7110;SDS011;3597;42.650;23.386;2022-07-06T09:58:12;4.80;;;4.70;;
7110;SDS011;3597;42.650;23.386;2022-07-06T10:00:37;9.17;;;8.43;;
7110;SDS011;3597;42.650;23.386;2022-07-06T10:03:03;4.60;;;4.50;;
7110;SDS011;3597;42.650;23.386;2022-07-06T10:05:29;4.80;;;4.60;;
7110;SDS011;3597;42.650;23.386;2022-07-06T10:07:59;4.17;;;3.97;;
7110;SDS011;3597;42.650;23.386;2022-07-06T10:10:28;4.83;;;4.73;;
7110;SDS011;3597;42.650;23.386;2022-07-06T10:12:55;5.20;;;5.10;;
7110;SDS011;3597;42.650;23.386;2022-07-06T10:15:26;5.30;;;5.20;;
7110;SDS011;3597;42.650;23.386;2022-07-06T10:17:53;4.50;;;4.40;;
7110;SDS011;3597;42.650;23.386;2022-07-06T10:20:19;4.30;;;4.20;;
7110;SDS011;3597;42.650;23.386;2022-07-06T10:22:46;4.77;;;4.63;;
7110;SDS011;3597;42.650;23.386;2022-07-06T10:25:13;3.97;;;3.88;;
7110;SDS011;3597;42.650;23.386;2022-07-06T10:27:41;4.15;;;4.05;;
7110;SDS011;3597;42.650;23.386;2022-07-06T10:30:07;3.92;;;3.83;;
7110;SDS011;3597;42.650;23.386;2022-07-06T10:32:34;4.00;;;3.90;;
7110;SDS011;3597;42.650;23.386;2022-07-06T10:35:00;4.60;;;4.50;;
7110;SDS011;3597;42.650;23.386;2022-07-06T10:37:26;3.95;;;3.85;;
7110;SDS011;3597;42.650;23.386;2022-07-06T10:39:52;4.70;;;4.50;;
7110;SDS011;3597;42.650;23.386;2022-07-06T10:42:40;5.63;;;5.53;;
7110;SDS011;3597;42.650;23.386;2022-07-06T10:45:11;4.97;;;4.88;;
7110;SDS011;3597;42.650;23.386;2022-07-06T10:47:37;5.18;;;5.07;;
7110;SDS011;3597;42.650;23.386;2022-07-06T10:50:03;6.43;;;6.32;;
7110;SDS011;3597;42.650;23.386;2022-07-06T10:55:34;6.82;;;6.60;;
7110;SDS011;3597;42.650;23.386;2022-07-06T10:58:01;6.90;;;6.70;;
7110;SDS011;3597;42.650;23.386;2022-07-06T11:01:10;6.10;;;6.00;;
7110;SDS011;3597;42.650;23.386;2022-07-06T11:03:33;5.43;;;5.32;;
7110;SDS011;3597;42.650;23.386;2022-07-06T11:11:38;3.70;;;3.60;;
7110;SDS011;3597;42.650;23.386;2022-07-06T11:14:11;4.30;;;4.20;;
7110;SDS011;3597;42.650;23.386;2022-07-06T11:19:13;3.50;;;3.40;;
7110;SDS011;3597;42.650;23.386;2022-07-06T11:24:09;4.72;;;4.63;;
7110;SDS011;3597;42.650;23.386;2022-07-06T11:26:37;4.38;;;4.28;;
7110;SDS011;3597;42.650;23.386;2022-07-06T11:29:04;3.58;;;3.58;;
7110;SDS011;3597;42.650;23.386;2022-07-06T11:31:35;4.18;;;4.07;;
7110;SDS011;3597;42.650;23.386;2022-07-06T11:34:03;5.32;;;5.22;;
7110;SDS011;3597;42.650;23.386;2022-07-06T11:36:29;5.90;;;5.80;;
7110;SDS011;3597;42.650;23.386;2022-07-06T11:38:55;6.70;;;6.60;;
7110;SDS011;3597;42.650;23.386;2022-07-06T11:41:20;6.95;;;6.80;;
7110;SDS011;3597;42.650;23.386;2022-07-06T11:43:46;8.02;;;7.93;;
7110;SDS011;3597;42.650;23.386;2022-07-06T11:48:49;6.35;;;6.25;;
7110;SDS011;3597;42.650;23.386;2022-07-06T11:51:15;6.80;;;6.70;;
7110;SDS011;3597;42.650;23.386;2022-07-06T11:53:47;6.60;;;6.50;;
7110;SDS011;3597;42.650;23.386;2022-07-06T11:56:14;7.63;;;7.43;;
7110;SDS011;3597;42.650;23.386;2022-07-06T11:58:41;6.85;;;6.75;;
7110;SDS011;3597;42.650;23.386;2022-07-06T12:01:09;8.85;;;8.55;;
7110;SDS011;3597;42.650;23.386;2022-07-06T12:03:35;8.60;;;8.40;;
7110;SDS011;3597;42.650;23.386;2022-07-06T12:06:05;7.57;;;7.40;;
7110;SDS011;3597;42.650;23.386;2022-07-06T12:11:32;8.43;;;8.23;;
7110;SDS011;3597;42.650;23.386;2022-07-06T12:14:03;8.52;;;8.32;;
7110;SDS011;3597;42.650;23.386;2022-07-06T12:16:38;7.22;;;7.13;;
7110;SDS011;3597;42.650;23.386;2022-07-06T12:19:04;7.88;;;7.68;;
7110;SDS011;3597;42.650;23.386;2022-07-06T12:21:30;9.13;;;8.93;;
7110;SDS011;3597;42.650;23.386;2022-07-06T12:23:56;8.32;;;8.13;;
7110;SDS011;3597;42.650;23.386;2022-07-06T12:26:22;7.35;;;7.15;;
7110;SDS011;3597;42.650;23.386;2022-07-06T12:29:03;5.30;;;5.20;;
7110;SDS011;3597;42.650;23.386;2022-07-06T12:31:47;4.15;;;4.15;;
7110;SDS011;3597;42.650;23.386;2022-07-06T12:34:22;3.85;;;3.75;;
7110;SDS011;3597;42.650;23.386;2022-07-06T12:36:49;3.42;;;3.38;;
7110;SDS011;3597;42.650;23.386;2022-07-06T12:39:17;3.40;;;3.40;;
7110;SDS011;3597;42.650;23.386;2022-07-06T12:42:05;3.05;;;3.05;;
7110;SDS011;3597;42.650;23.386;2022-07-06T12:44:32;3.10;;;3.10;;
7110;SDS011;3597;42.650;23.386;2022-07-06T12:47:04;3.25;;;3.25;;
7110;SDS011;3597;42.650;23.386;2022-07-06T12:49:31;3.10;;;3.10;;
7110;SDS011;3597;42.650;23.386;2022-07-06T12:52:01;3.80;;;3.70;;
7110;SDS011;3597;42.650;23.386;2022-07-06T12:59:26;3.67;;;3.58;;
7110;SDS011;3597;42.650;23.386;2022-07-06T13:01:52;4.40;;;4.30;;
7110;SDS011;3597;42.650;23.386;2022-07-06T13:04:22;4.00;;;3.90;;
7110;SDS011;3597;42.650;23.386;2022-07-06T13:06:57;3.38;;;3.38;;
7110;SDS011;3597;42.650;23.386;2022-07-06T13:09:23;3.55;;;3.55;;
7110;SDS011;3597;42.650;23.386;2022-07-06T13:11:49;3.40;;;3.40;;
7110;SDS011;3597;42.650;23.386;2022-07-06T13:14:15;2.85;;;2.85;;
7110;SDS011;3597;42.650;23.386;2022-07-06T13:16:42;3.22;;;3.20;;
7110;SDS011;3597;42.650;23.386;2022-07-06T13:19:08;2.80;;;2.80;;
7110;SDS011;3597;42.650;23.386;2022-07-06T13:21:34;2.80;;;2.80;;
7110;SDS011;3597;42.650;23.386;2022-07-06T13:24:00;2.72;;;2.72;;
7110;SDS011;3597;42.650;23.386;2022-07-06T13:26:25;2.65;;;2.58;;
7110;SDS011;3597;42.650;23.386;2022-07-06T13:28:51;2.67;;;2.58;;
7110;SDS011;3597;42.650;23.386;2022-07-06T13:31:16;2.55;;;2.53;;
7110;SDS011;3597;42.650;23.386;2022-07-06T13:33:41;2.27;;;2.27;;
7110;SDS011;3597;42.650;23.386;2022-07-06T13:36:07;2.30;;;2.30;;
7110;SDS011;3597;42.650;23.386;2022-07-06T13:38:32;2.38;;;2.38;;
7110;SDS011;3597;42.650;23.386;2022-07-06T13:40:58;2.20;;;2.20;;
7110;SDS011;3597;42.650;23.386;2022-07-06T13:43:23;2.13;;;2.13;;
7110;SDS011;3597;42.650;23.386;2022-07-06T13:45:48;2.30;;;2.30;;
7110;SDS011;3597;42.650;23.386;2022-07-06T13:48:14;2.22;;;2.22;;
7110;SDS011;3597;42.650;23.386;2022-07-06T13:50:39;2.25;;;2.25;;
7110;SDS011;3597;42.650;23.386;2022-07-06T13:53:05;2.10;;;2.10;;
7110;SDS011;3597;42.650;23.386;2022-07-06T13:55:31;2.07;;;2.07;;
7110;SDS011;3597;42.650;23.386;2022-07-06T13:57:56;2.33;;;2.33;;
7110;SDS011;3597;42.650;23.386;2022-07-06T14:00:22;1.80;;;1.80;;
7110;SDS011;3597;42.650;23.386;2022-07-06T14:02:47;1.90;;;1.90;;
7110;SDS011;3597;42.650;23.386;2022-07-06T14:05:13;1.70;;;1.70;;
7110;SDS011;3597;42.650;23.386;2022-07-06T14:07:38;1.85;;;1.85;;
7110;SDS011;3597;42.650;23.386;2022-07-06T14:10:04;1.87;;;1.87;;
7110;SDS011;3597;42.650;23.386;2022-07-06T14:12:30;1.80;;;1.80;;
7110;SDS011;3597;42.650;23.386;2022-07-06T14:14:55;1.85;;;1.85;;
7110;SDS011;3597;42.650;23.386;2022-07-06T14:17:20;1.70;;;1.70;;
7110;SDS011;3597;42.650;23.386;2022-07-06T14:19:46;1.80;;;1.80;;
7110;SDS011;3597;42.650;23.386;2022-07-06T14:22:13;1.77;;;1.77;;
7110;SDS011;3597;42.650;23.386;2022-07-06T14:24:38;2.08;;;2.08;;
7110;SDS011;3597;42.650;23.386;2022-07-06T14:27:04;1.73;;;1.73;;
7110;SDS011;3597;42.650;23.386;2022-07-06T14:29:29;2.00;;;2.00;;
7110;SDS011;3597;42.650;23.386;2022-07-06T14:31:54;1.73;;;1.73;;
7110;SDS011;3597;42.650;23.386;2022-07-06T14:34:20;1.90;;;1.90;;
7110;SDS011;3597;42.650;23.386;2022-07-06T14:36:46;1.93;;;1.93;;
7110;SDS011;3597;42.650;23.386;2022-07-06T14:39:11;2.20;;;2.20;;
7110;SDS011;3597;42.650;23.386;2022-07-06T14:41:37;1.73;;;1.73;;
7110;SDS011;3597;42.650;23.386;2022-07-06T14:44:03;1.87;;;1.87;;
7110;SDS011;3597;42.650;23.386;2022-07-06T14:46:29;1.90;;;1.90;;
7110;SDS011;3597;42.650;23.386;2022-07-06T14:48:55;2.00;;;2.00;;
7110;SDS011;3597;42.650;23.386;2022-07-06T14:51:20;2.00;;;1.90;;
7110;SDS011;3597;42.650;23.386;2022-07-06T14:53:46;1.90;;;1.90;;
7110;SDS011;3597;42.650;23.386;2022-07-06T14:56:11;1.88;;;1.88;;
7110;SDS011;3597;42.650;23.386;2022-07-06T14:58:36;1.60;;;1.60;;
7110;SDS011;3597;42.650;23.386;2022-07-06T15:01:02;1.97;;;1.97;;
7110;SDS011;3597;42.650;23.386;2022-07-06T15:03:27;1.80;;;1.80;;
7110;SDS011;3597;42.650;23.386;2022-07-06T15:05:52;1.90;;;1.90;;
7110;SDS011;3597;42.650;23.386;2022-07-06T15:08:18;1.87;;;1.87;;
7110;SDS011;3597;42.650;23.386;2022-07-06T15:10:43;2.00;;;2.00;;
7110;SDS011;3597;42.650;23.386;2022-07-06T15:13:09;1.83;;;1.83;;
7110;SDS011;3597;42.650;23.386;2022-07-06T15:15:35;1.70;;;1.70;;
7110;SDS011;3597;42.650;23.386;2022-07-06T15:18:01;1.87;;;1.87;;
7110;SDS011;3597;42.650;23.386;2022-07-06T15:20:26;1.70;;;1.70;;
7110;SDS011;3597;42.650;23.386;2022-07-06T15:22:54;2.00;;;2.00;;
7110;SDS011;3597;42.650;23.386;2022-07-06T15:25:20;1.80;;;1.80;;
7110;SDS011;3597;42.650;23.386;2022-07-06T15:27:47;2.20;;;2.20;;